Time;durP1;ratioP1;P1;durP2;ratioP2;P2;SDS_P1;SDS_P2;PMS_P1;PMS_P2;Temp;Humidity;BMP_temperature;BMP_pressure;BME280_temperature;BME280_humidity;BME280_pressure;Samples;Min_cycle;Max_cycle;Signal;HPM_P1;HPM_P2
2021/06/03 00:00:54;;;;;;;8.30;7.60;;;16.90;1.00;;;;;;5042731;28;20469;-77
2021/06/03 00:03:21;;;;;;;8.10;7.33;;;16.90;1.00;;;;;;5042874;28;20979;-77
2021/06/03 00:05:51;;;;;;;7.17;6.57;;;16.90;1.00;;;;;;5040371;28;20475;-77
2021/06/03 00:08:19;;;;;;;8.20;7.47;;;16.80;1.00;;;;;;5045864;28;20553;-77
2021/06/03 00:10:50;;;;;;;6.97;6.47;;;16.80;1.00;;;;;;5043844;28;24531;-77
2021/06/03 00:13:17;;;;;;;9.17;7.60;;;16.80;1.00;;;;;;5031879;28;20464;-77
2021/06/03 00:15:43;;;;;;;8.20;7.37;;;16.80;1.00;;;;;;5039977;28;20441;-77
2021/06/03 00:18:10;;;;;;;8.97;7.10;;;16.70;1.00;;;;;;5042095;28;20809;-77
2021/06/03 00:20:37;;;;;;;7.80;7.03;;;16.70;1.00;;;;;;5045212;28;20574;-76
2021/06/03 00:23:05;;;;;;;8.73;7.97;;;16.70;1.00;;;;;;5041919;28;20433;-77
2021/06/03 00:25:32;;;;;;;8.07;7.27;;;16.60;1.00;;;;;;5042885;28;20470;-77
2021/06/03 00:27:58;;;;;;;7.47;6.87;;;16.60;1.00;;;;;;5046972;28;21305;-77
2021/06/03 00:30:24;;;;;;;8.63;7.00;;;16.60;1.00;;;;;;5044616;28;21719;-78
2021/06/03 00:32:50;;;;;;;7.87;7.27;;;16.60;1.00;;;;;;5044640;28;20495;-77
2021/06/03 00:35:19;;;;;;;8.37;7.40;;;16.50;1.00;;;;;;5043964;28;20524;-77
2021/06/03 00:37:45;;;;;;;7.90;7.30;;;16.50;1.00;;;;;;5043312;28;20456;-77
2021/06/03 00:40:14;;;;;;;8.13;7.50;;;16.40;1.00;;;;;;5043133;28;20904;-77
2021/06/03 00:42:42;;;;;;;8.80;7.97;;;16.30;1.00;;;;;;5042556;28;20523;-77
2021/06/03 00:45:10;;;;;;;9.73;8.13;;;16.30;1.00;;;;;;5042704;28;20451;-77
2021/06/03 00:47:37;;;;;;;8.43;7.77;;;16.30;1.00;;;;;;5044594;28;20674;-77
2021/06/03 00:50:07;;;;;;;8.40;7.73;;;16.30;1.00;;;;;;5044076;28;20499;-77
2021/06/03 00:52:33;;;;;;;8.63;7.77;;;16.30;1.00;;;;;;5043980;28;20444;-77
2021/06/03 00:54:59;;;;;;;7.97;7.17;;;16.20;1.00;;;;;;5058839;28;20627;-77
2021/06/03 00:57:27;;;;;;;8.10;7.40;;;16.20;1.00;;;;;;5053763;28;20466;-76
2021/06/03 00:59:53;;;;;;;8.43;7.73;;;16.20;1.00;;;;;;5057739;28;20556;-77
2021/06/03 01:02:19;;;;;;;11.00;9.00;;;16.20;1.00;;;;;;5048432;28;20494;-77
2021/06/03 01:04:45;;;;;;;7.90;7.20;;;16.10;1.00;;;;;;5043029;28;20713;-77
2021/06/03 01:07:11;;;;;;;8.60;8.00;;;16.10;1.00;;;;;;5044685;28;20895;-77
2021/06/03 01:09:42;;;;;;;9.23;8.33;;;16.00;1.00;;;;;;5040296;28;20535;-77
2021/06/03 01:12:13;;;;;;;8.13;7.43;;;16.00;1.00;;;;;;5038859;28;20468;-77
2021/06/03 01:14:46;;;;;;;9.40;8.40;;;15.90;1.00;;;;;;5040479;28;20445;-77
2021/06/03 01:17:12;;;;;;;9.03;8.23;;;15.90;1.00;;;;;;5043451;28;20499;-77
2021/06/03 01:19:42;;;;;;;8.33;7.60;;;15.80;1.00;;;;;;5043674;28;20524;-77
2021/06/03 01:22:11;;;;;;;8.20;7.50;;;15.80;1.00;;;;;;5043141;28;23669;-77
2021/06/03 01:24:41;;;;;;;8.83;7.90;;;15.70;1.00;;;;;;5053595;28;20524;-77
2021/06/03 01:27:10;;;;;;;8.57;7.87;;;15.70;1.00;;;;;;5043774;28;20471;-77
2021/06/03 01:29:44;;;;;;;8.90;8.20;;;15.70;1.00;;;;;;5037891;28;20472;-77
2021/06/03 01:32:11;;;;;;;9.13;7.93;;;15.60;1.00;;;;;;5039503;28;21062;-77
2021/06/03 01:34:38;;;;;;;9.37;8.17;;;15.60;1.00;;;;;;5041973;28;20464;-77
2021/06/03 01:37:05;;;;;;;9.33;8.10;;;15.50;1.00;;;;;;5047056;28;20471;-77
2021/06/03 01:39:32;;;;;;;10.30;8.70;;;15.50;1.00;;;;;;5041028;28;20436;-77
2021/06/03 01:42:00;;;;;;;9.03;8.33;;;15.50;1.00;;;;;;5043196;28;20511;-78
2021/06/03 01:44:27;;;;;;;8.90;8.20;;;15.40;1.00;;;;;;5044578;28;20449;-77
2021/06/03 01:46:54;;;;;;;8.87;8.00;;;15.30;1.00;;;;;;5044741;28;20443;-77
2021/06/03 01:49:22;;;;;;;9.83;9.03;;;15.30;1.00;;;;;;5044346;28;20436;-77
2021/06/03 01:51:49;;;;;;;10.00;9.10;;;15.30;1.00;;;;;;5045488;28;20936;-77
2021/06/03 01:54:15;;;;;;;8.93;8.20;;;15.30;1.00;;;;;;5045854;28;21157;-78
2021/06/03 01:56:42;;;;;;;10.30;9.40;;;15.30;1.00;;;;;;5046935;28;20864;-77
2021/06/03 01:59:09;;;;;;;9.33;8.53;;;15.30;1.00;;;;;;5044339;28;20546;-77
2021/06/03 02:01:36;;;;;;;12.23;9.30;;;15.30;1.00;;;;;;5041436;28;20444;-76
2021/06/03 02:04:02;;;;;;;8.27;7.57;;;15.20;1.00;;;;;;5039218;28;20464;-77
2021/06/03 02:06:28;;;;;;;9.00;8.30;;;15.20;1.00;;;;;;5040033;28;20464;-77
2021/06/03 02:08:54;;;;;;;9.90;9.13;;;15.10;1.00;;;;;;5042403;28;20460;-77
2021/06/03 02:11:21;;;;;;;10.03;9.03;;;15.10;1.00;;;;;;5037231;28;20867;-77
2021/06/03 02:13:52;;;;;;;8.70;8.10;;;15.20;1.00;;;;;;5039086;28;20438;-77
2021/06/03 02:16:24;;;;;;;9.50;8.70;;;15.10;1.00;;;;;;5040432;28;20463;-76
2021/06/03 02:18:55;;;;;;;9.77;8.87;;;15.10;1.00;;;;;;5044579;28;21102;-77
2021/06/03 02:21:23;;;;;;;8.73;7.50;;;15.00;1.00;;;;;;5038406;28;20476;-76
2021/06/03 02:23:52;;;;;;;9.57;8.57;;;14.90;1.00;;;;;;5040800;28;20452;-76
2021/06/03 02:26:19;;;;;;;8.70;8.07;;;14.90;1.00;;;;;;5036463;28;20688;-77
2021/06/03 02:28:47;;;;;;;10.00;9.07;;;14.90;1.00;;;;;;5041979;28;20445;-77
2021/06/03 02:31:13;;;;;;;12.50;11.40;;;14.90;1.00;;;;;;5038478;28;20578;-76
2021/06/03 02:33:41;;;;;;;9.10;8.40;;;14.90;1.00;;;;;;5036106;28;20472;-76
2021/06/03 02:36:08;;;;;;;9.73;8.80;;;14.90;1.00;;;;;;5041870;28;20461;-76
2021/06/03 02:38:36;;;;;;;8.90;8.20;;;14.90;1.00;;;;;;5038421;28;20455;-77
2021/06/03 02:41:06;;;;;;;9.00;8.20;;;14.90;1.00;;;;;;5036542;28;21535;-76
2021/06/03 02:43:32;;;;;;;10.50;9.40;;;14.80;1.00;;;;;;5039096;28;20453;-76
2021/06/03 02:46:00;;;;;;;12.00;9.70;;;14.80;1.00;;;;;;5041486;28;20448;-76
2021/06/03 02:48:27;;;;;;;11.80;10.03;;;14.80;1.00;;;;;;5038181;28;20432;-77
2021/06/03 02:50:54;;;;;;;12.43;10.40;;;14.70;1.00;;;;;;5038869;28;23021;-76
2021/06/03 02:53:21;;;;;;;10.70;9.60;;;14.70;1.00;;;;;;5039854;28;20463;-77
2021/06/03 02:55:47;;;;;;;9.47;8.67;;;14.70;1.00;;;;;;5037325;28;20447;-77
2021/06/03 02:58:13;;;;;;;9.20;8.30;;;14.70;1.00;;;;;;5038362;28;21192;-77
2021/06/03 03:00:40;;;;;;;9.00;8.20;;;14.70;1.00;;;;;;5042737;28;21327;-77
2021/06/03 03:03:09;;;;;;;9.13;8.23;;;14.70;1.00;;;;;;5040479;28;20889;-76
2021/06/03 03:05:36;;;;;;;10.57;9.47;;;14.70;1.00;;;;;;5040515;28;20468;-75
2021/06/03 03:08:03;;;;;;;10.70;8.50;;;14.70;1.00;;;;;;5040393;28;20435;-76
2021/06/03 03:10:34;;;;;;;9.80;8.83;;;14.70;1.00;;;;;;5036228;28;20632;-76
2021/06/03 03:13:00;;;;;;;13.90;8.70;;;14.70;1.00;;;;;;5035547;28;20468;-78
2021/06/03 03:15:27;;;;;;;10.50;9.60;;;14.70;1.00;;;;;;5041415;28;20466;-77
2021/06/03 03:17:53;;;;;;;9.80;8.80;;;14.70;1.00;;;;;;5044730;28;20506;-76
2021/06/03 03:20:21;;;;;;;9.93;8.80;;;14.70;1.00;;;;;;5039099;28;20460;-76
2021/06/03 03:22:51;;;;;;;8.90;8.20;;;14.70;1.00;;;;;;5039555;28;21402;-77
2021/06/03 03:25:19;;;;;;;9.73;8.73;;;14.70;1.00;;;;;;5040707;28;20518;-77
2021/06/03 03:27:47;;;;;;;10.37;9.37;;;14.70;1.00;;;;;;5044931;28;21810;-77
2021/06/03 03:30:15;;;;;;;8.53;7.63;;;14.80;1.00;;;;;;5042633;28;22703;-78
2021/06/03 03:32:41;;;;;;;12.43;9.73;;;14.70;1.00;;;;;;5043679;28;20605;-77
2021/06/03 03:35:10;;;;;;;9.67;8.70;;;14.70;1.00;;;;;;5037011;28;20425;-77
2021/06/03 03:37:37;;;;;;;8.77;7.97;;;14.70;1.00;;;;;;5044997;28;20463;-77
2021/06/03 03:40:04;;;;;;;10.43;8.90;;;14.70;1.00;;;;;;5051993;28;21288;-76
2021/06/03 03:42:32;;;;;;;10.37;8.97;;;14.70;1.00;;;;;;5051034;28;20440;-77
2021/06/03 03:44:58;;;;;;;10.30;8.20;;;14.70;1.00;;;;;;5048267;28;20510;-77
2021/06/03 03:47:24;;;;;;;9.90;9.00;;;14.70;1.00;;;;;;5041680;28;20463;-77
2021/06/03 03:49:51;;;;;;;13.93;9.00;;;14.70;1.00;;;;;;5058895;28;21048;-76
2021/06/03 03:52:17;;;;;;;8.67;7.97;;;14.70;1.00;;;;;;5049923;28;21687;-77
2021/06/03 03:54:43;;;;;;;9.50;8.60;;;14.70;1.00;;;;;;5045632;28;20448;-76
2021/06/03 03:57:10;;;;;;;9.73;8.73;;;14.70;1.00;;;;;;5044433;28;20472;-77
2021/06/03 03:59:38;;;;;;;9.10;8.30;;;14.70;1.00;;;;;;5043380;28;20447;-77
2021/06/03 04:02:04;;;;;;;9.57;8.70;;;14.70;1.00;;;;;;5048809;28;20495;-77
2021/06/03 04:04:59;;;;;;;9.90;9.00;;;14.80;1.00;;;;;;5045892;28;20457;-78
2021/06/03 04:07:25;;;;;;;11.30;8.70;;;14.80;1.00;;;;;;5043541;28;20465;-77
2021/06/03 04:09:52;;;;;;;17.43;9.30;;;14.80;1.00;;;;;;5045060;28;20457;-77
2021/06/03 04:12:19;;;;;;;13.83;11.53;;;14.80;1.00;;;;;;5042634;28;20464;-77
2021/06/03 04:14:47;;;;;;;10.00;9.00;;;14.80;1.00;;;;;;5039758;28;20465;-77
2021/06/03 04:17:13;;;;;;;10.13;9.03;;;14.90;1.00;;;;;;5047127;28;20471;-77
2021/06/03 04:19:40;;;;;;;9.70;8.80;;;14.90;1.00;;;;;;5041582;28;20993;-77
2021/06/03 04:22:06;;;;;;;10.83;8.80;;;14.90;1.00;;;;;;5045688;28;20467;-77
2021/06/03 04:24:32;;;;;;;10.10;9.17;;;14.90;1.00;;;;;;5047713;28;20425;-77
2021/06/03 04:26:59;;;;;;;10.67;9.70;;;14.90;1.00;;;;;;5049085;28;20451;-77
2021/06/03 04:29:25;;;;;;;9.60;8.70;;;15.00;1.00;;;;;;5041486;28;20442;-77
2021/06/03 04:31:53;;;;;;;10.10;9.07;;;15.10;1.00;;;;;;5045869;28;20580;-77
2021/06/03 04:34:19;;;;;;;10.97;9.13;;;15.10;1.00;;;;;;5043332;28;20448;-76
2021/06/03 04:36:45;;;;;;;12.03;9.47;;;15.10;1.00;;;;;;5041376;28;20456;-77
2021/06/03 04:39:11;;;;;;;10.77;9.63;;;15.10;1.00;;;;;;5047052;28;20463;-75
2021/06/03 04:41:37;;;;;;;10.37;9.40;;;15.20;1.00;;;;;;5046279;28;20462;-77
2021/06/03 04:44:04;;;;;;;9.87;9.07;;;15.20;1.00;;;;;;5045385;28;20463;-77
2021/06/03 04:46:30;;;;;;;11.50;10.30;;;15.20;1.00;;;;;;5051130;28;20452;-78
2021/06/03 04:48:58;;;;;;;17.37;14.10;;;15.30;1.00;;;;;;5043207;28;20452;-77
2021/06/03 04:51:24;;;;;;;8.93;8.03;;;15.30;1.00;;;;;;5045460;28;20472;-77
2021/06/03 04:53:50;;;;;;;9.43;8.53;;;15.40;1.00;;;;;;5043819;28;20460;-77
2021/06/03 04:56:16;;;;;;;9.53;8.70;;;15.40;1.00;;;;;;5043201;28;21236;-77
2021/06/03 04:58:42;;;;;;;11.13;9.83;;;15.40;1.00;;;;;;5047720;28;20478;-77
2021/06/03 05:01:08;;;;;;;10.03;9.03;;;15.50;1.00;;;;;;5039580;28;20476;-77
2021/06/03 05:03:35;;;;;;;8.80;7.90;;;15.50;1.00;;;;;;5046248;28;21322;-77
2021/06/03 05:06:03;;;;;;;12.77;10.00;;;15.60;1.00;;;;;;5046532;28;20441;-77
2021/06/03 05:08:29;;;;;;;10.03;9.13;;;15.60;1.00;;;;;;5046967;28;21056;-77
2021/06/03 05:10:55;;;;;;;10.03;9.03;;;15.80;1.00;;;;;;5042855;28;20518;-76
2021/06/03 05:13:21;;;;;;;9.20;8.40;;;15.80;1.00;;;;;;5038254;28;20459;-76
2021/06/03 05:15:47;;;;;;;9.30;8.40;;;15.90;1.00;;;;;;5046751;28;20429;-77
2021/06/03 05:18:13;;;;;;;10.00;8.57;;;16.00;1.00;;;;;;5050470;28;20477;-76
2021/06/03 05:20:40;;;;;;;8.97;8.03;;;16.00;1.00;;;;;;5063238;28;20416;-77
2021/06/03 05:23:08;;;;;;;12.33;9.00;;;16.10;1.00;;;;;;5055256;28;20857;-77
2021/06/03 05:25:34;;;;;;;10.27;9.27;;;16.20;1.00;;;;;;5051714;28;20994;-79
2021/06/03 05:28:02;;;;;;;8.33;7.23;;;16.20;1.00;;;;;;5052034;28;20469;-76
2021/06/03 05:30:30;;;;;;;10.60;8.40;;;16.20;1.00;;;;;;5058474;28;20473;-81
2021/06/03 05:32:57;;;;;;;12.07;9.20;;;16.20;1.00;;;;;;5054849;28;20900;-78
2021/06/03 05:35:24;;;;;;;8.80;8.03;;;16.40;1.00;;;;;;5055385;28;20824;-78
2021/06/03 05:37:50;;;;;;;10.23;8.77;;;16.50;1.00;;;;;;5057100;28;20622;-79
2021/06/03 05:40:19;;;;;;;10.87;8.27;;;16.60;1.00;;;;;;5062685;28;20422;-78
2021/06/03 05:42:47;;;;;;;13.57;8.20;;;16.70;1.00;;;;;;5051965;28;20449;-78
2021/06/03 05:45:13;;;;;;;8.70;7.90;;;16.90;1.00;;;;;;5053415;28;20469;-80
2021/06/03 05:47:40;;;;;;;8.95;7.88;;;17.00;1.00;;;;;;5043895;28;20365;-78
2021/06/03 05:50:09;;;;;;;8.50;7.70;;;17.20;1.00;;;;;;5043836;28;20320;-77
2021/06/03 05:52:36;;;;;;;9.23;8.43;;;17.30;1.00;;;;;;5043015;28;20466;-74
2021/06/03 05:55:03;;;;;;;9.70;8.80;;;17.40;1.00;;;;;;5043687;28;20492;-75
2021/06/03 05:57:30;;;;;;;10.53;9.00;;;17.40;1.00;;;;;;5043834;28;20451;-77
2021/06/03 05:59:57;;;;;;;14.87;9.27;;;17.50;1.00;;;;;;5044389;28;20470;-75
2021/06/03 06:02:29;;;;;;;28.90;12.97;;;17.70;1.00;;;;;;5053227;28;20461;-76
2021/06/03 06:07:41;;;;;;;8.67;7.77;;;18.00;1.00;;;;;;5044668;28;21838;-76
2021/06/03 06:10:09;;;;;;;9.27;8.43;;;18.10;1.00;;;;;;5051432;28;20438;-76
2021/06/03 06:12:37;;;;;;;8.67;7.97;;;18.20;1.00;;;;;;5044753;28;20472;-76
2021/06/03 06:15:04;;;;;;;10.80;8.27;;;18.20;1.00;;;;;;5041813;28;20896;-76
2021/06/03 06:17:31;;;;;;;9.80;9.00;;;18.40;1.00;;;;;;5060327;28;20419;-75
2021/06/03 06:19:57;;;;;;;8.70;7.80;;;18.50;1.00;;;;;;5043708;28;20454;-77
2021/06/03 06:22:24;;;;;;;12.50;9.47;;;18.60;1.00;;;;;;5060034;28;20506;-75
2021/06/03 06:24:50;;;;;;;8.00;7.30;;;18.80;1.00;;;;;;5057417;28;20454;-77
2021/06/03 06:27:16;;;;;;;9.13;8.00;;;18.90;1.00;;;;;;5056943;28;20462;-74
2021/06/03 06:29:44;;;;;;;9.23;7.00;;;19.00;1.00;;;;;;5051669;28;21055;-76
2021/06/03 06:32:10;;;;;;;7.57;6.90;;;19.10;1.00;;;;;;5045974;28;20693;-76
2021/06/03 06:34:36;;;;;;;7.87;7.17;;;19.20;1.00;;;;;;5041319;28;20462;-75
2021/06/03 06:37:03;;;;;;;9.17;8.20;;;19.40;1.00;;;;;;5043306;28;21058;-75
2021/06/03 06:39:29;;;;;;;9.77;8.00;;;19.50;1.00;;;;;;5051082;28;20491;-76
2021/06/03 06:41:55;;;;;;;14.67;8.50;;;19.70;1.00;;;;;;5040058;28;20511;-77
2021/06/03 06:44:21;;;;;;;7.97;7.13;;;19.90;1.00;;;;;;5040771;28;20471;-76
2021/06/03 06:46:48;;;;;;;9.53;7.43;;;19.90;1.00;;;;;;5041233;28;20453;-76
2021/06/03 06:49:15;;;;;;;8.53;7.03;;;19.80;1.00;;;;;;5049284;28;20454;-74
2021/06/03 06:51:41;;;;;;;8.40;7.30;;;19.80;1.00;;;;;;5045382;28;20493;-76
2021/06/03 06:54:07;;;;;;;8.27;7.37;;;19.80;1.00;;;;;;5042634;28;20463;-75
2021/06/03 06:56:34;;;;;;;7.67;6.97;;;19.90;1.00;;;;;;5059329;28;20443;-78
2021/06/03 06:59:00;;;;;;;8.50;7.00;;;20.00;1.00;;;;;;5065070;28;20481;-77
2021/06/03 07:01:26;;;;;;;9.23;7.60;;;20.10;1.00;;;;;;5048675;28;20451;-77
2021/06/03 07:03:54;;;;;;;8.80;8.00;;;20.30;1.00;;;;;;5046941;28;22729;-79
2021/06/03 07:06:20;;;;;;;19.70;9.13;;;20.60;1.00;;;;;;5042201;28;20962;-76
2021/06/03 07:08:46;;;;;;;7.27;6.57;;;20.80;1.00;;;;;;5045684;28;20527;-78
2021/06/03 07:11:13;;;;;;;8.37;6.40;;;20.80;1.00;;;;;;5043592;28;20456;-78
2021/06/03 07:13:39;;;;;;;8.90;8.00;;;20.80;1.00;;;;;;5046449;28;20964;-77
2021/06/03 07:16:05;;;;;;;5.90;5.30;;;20.90;1.00;;;;;;5050039;28;20457;-77
2021/06/03 07:18:32;;;;;;;8.87;6.80;;;21.00;1.00;;;;;;5045482;28;20512;-80
2021/06/03 07:20:59;;;;;;;7.67;6.47;;;21.00;1.00;;;;;;5041614;28;20461;-79
2021/06/03 07:23:26;;;;;;;9.70;7.60;;;21.20;1.00;;;;;;5044428;28;20476;-78
2021/06/03 07:25:55;;;;;;;7.17;6.43;;;21.30;1.00;;;;;;5048793;28;21377;-78
2021/06/03 07:28:22;;;;;;;6.83;6.23;;;21.40;1.00;;;;;;5048505;28;20425;-78
2021/06/03 07:30:49;;;;;;;6.27;5.67;;;21.40;1.00;;;;;;5049937;28;20469;-78
2021/06/03 07:33:15;;;;;;;10.23;5.93;;;21.50;1.00;;;;;;5041602;28;20464;-78
2021/06/03 07:35:41;;;;;;;6.60;6.00;;;21.60;1.00;;;;;;5039001;28;20465;-78
2021/06/03 07:38:09;;;;;;;8.10;7.30;;;21.60;1.00;;;;;;5042210;28;20937;-79
2021/06/03 07:40:39;;;;;;;7.03;6.07;;;21.70;1.00;;;;;;5039652;28;20468;-77
2021/06/03 07:43:06;;;;;;;6.80;6.20;;;21.80;1.00;;;;;;5041720;28;22173;-78
2021/06/03 07:45:33;;;;;;;10.13;6.83;;;21.90;1.00;;;;;;5038711;28;20453;-78
2021/06/03 07:47:59;;;;;;;6.60;6.00;;;22.00;1.00;;;;;;5046689;28;20504;-78
2021/06/03 07:50:27;;;;;;;7.47;6.00;;;22.10;1.00;;;;;;5040882;28;20482;-77
2021/06/03 07:52:54;;;;;;;10.13;6.40;;;22.20;1.00;;;;;;5037072;28;20434;-79
2021/06/03 07:55:21;;;;;;;13.50;6.63;;;22.20;1.00;;;;;;5049162;28;20448;-78
2021/06/03 07:58:05;;;;;;;7.50;6.53;;;22.30;1.00;;;;;;5054436;28;20443;-78
2021/06/03 08:00:41;;;;;;;6.37;5.70;;;22.50;1.00;;;;;;5070595;28;20470;-76
2021/06/03 08:03:11;;;;;;;9.03;5.77;;;22.80;1.00;;;;;;5051655;28;21679;-77
2021/06/03 08:05:38;;;;;;;7.80;5.70;;;22.80;1.00;;;;;;5042475;28;20452;-77
2021/06/03 08:08:05;;;;;;;6.83;5.60;;;22.80;1.00;;;;;;5039524;28;20515;-76
2021/06/03 08:10:35;;;;;;;8.20;6.70;;;22.90;1.00;;;;;;5043287;28;20494;-76
2021/06/03 08:13:03;;;;;;;6.63;6.03;;;23.00;1.00;;;;;;5043719;28;20435;-76
2021/06/03 08:15:32;;;;;;;6.20;5.53;;;23.10;1.00;;;;;;5044182;28;20466;-76
2021/06/03 08:17:59;;;;;;;7.80;6.30;;;23.20;1.00;;;;;;5054654;28;20459;-78
2021/06/03 08:20:27;;;;;;;6.20;5.30;;;23.30;1.00;;;;;;5043102;28;20509;-76
2021/06/03 08:22:54;;;;;;;9.30;6.67;;;23.30;1.00;;;;;;5051096;28;20438;-76
2021/06/03 08:25:20;;;;;;;9.03;6.10;;;23.20;1.00;;;;;;5046208;28;20461;-76
2021/06/03 08:27:48;;;;;;;6.67;6.10;;;23.40;1.00;;;;;;5041695;28;20447;-76
2021/06/03 08:30:15;;;;;;;6.23;5.67;;;23.50;1.00;;;;;;5036841;28;20459;-77
2021/06/03 08:32:44;;;;;;;6.70;6.00;;;23.70;1.00;;;;;;5041835;28;21225;-78
2021/06/03 08:35:14;;;;;;;8.53;6.67;;;23.90;1.00;;;;;;5042193;28;20453;-75
2021/06/03 08:37:42;;;;;;;5.93;4.80;;;23.70;1.00;;;;;;5040642;28;21230;-78
2021/06/03 08:40:09;;;;;;;5.60;5.07;;;23.70;1.00;;;;;;5045987;28;21232;-77
2021/06/03 08:42:36;;;;;;;7.00;4.93;;;23.80;1.00;;;;;;5040988;28;20449;-78
2021/06/03 08:45:05;;;;;;;8.60;6.73;;;24.00;1.00;;;;;;5044926;28;21166;-77
2021/06/03 08:47:32;;;;;;;6.63;6.00;;;24.10;1.00;;;;;;5044326;28;20649;-78
2021/06/03 08:49:59;;;;;;;8.40;6.00;;;24.30;1.00;;;;;;5041619;28;20773;-78
2021/06/03 08:52:25;;;;;;;7.53;4.93;;;24.40;1.00;;;;;;5043716;28;20418;-78
2021/06/03 08:54:54;;;;;;;6.03;5.30;;;24.50;1.00;;;;;;5042434;28;20445;-76
2021/06/03 08:57:20;;;;;;;5.30;4.80;;;24.50;1.00;;;;;;5040409;28;20469;-77
2021/06/03 08:59:47;;;;;;;5.93;4.80;;;24.70;1.00;;;;;;5043080;28;22308;-78
2021/06/03 09:02:15;;;;;;;5.23;4.33;;;24.70;1.00;;;;;;5042257;28;20459;-77
2021/06/03 09:04:41;;;;;;;6.03;4.60;;;24.70;1.00;;;;;;5037911;28;20735;-78
2021/06/03 09:07:26;;;;;;;12.90;4.50;;;24.80;1.00;;;;;;5034384;28;20469;-78
2021/06/03 09:09:52;;;;;;;7.50;5.83;;;25.00;1.00;;;;;;5040564;28;20513;-77
2021/06/03 09:12:19;;;;;;;5.37;4.63;;;25.20;1.00;;;;;;5038614;28;20465;-77
2021/06/03 09:14:45;;;;;;;7.10;5.03;;;25.20;1.00;;;;;;5035731;28;21275;-77
2021/06/03 09:17:12;;;;;;;4.80;4.30;;;25.30;1.00;;;;;;5043362;28;20431;-75
2021/06/03 09:19:52;;;;;;;5.40;4.90;;;25.30;1.00;;;;;;5050886;28;20449;-77
2021/06/03 09:22:36;;;;;;;6.20;4.80;;;25.50;1.00;;;;;;5054959;28;20485;-77
2021/06/03 09:25:32;;;;;;;10.80;7.60;;;25.70;1.00;;;;;;5043309;28;21337;-79
2021/06/03 09:28:31;;;;;;;4.33;4.03;;;26.00;1.00;;;;;;5052829;28;20533;-78
2021/06/03 09:31:01;;;;;;;5.80;4.10;;;26.20;1.00;;;;;;5040319;28;20530;-78
2021/06/03 09:34:04;;;;;;;5.43;4.30;;;26.10;1.00;;;;;;5041449;28;20452;-78
2021/06/03 09:36:43;;;;;;;6.17;4.70;;;26.50;1.00;;;;;;5042695;28;20455;-77
2021/06/03 09:39:19;;;;;;;4.60;4.20;;;27.40;1.00;;;;;;5050930;28;20440;-77
2021/06/03 09:41:48;;;;;;;4.73;4.27;;;28.50;1.00;;;;;;5060975;28;20450;-78
2021/06/03 09:44:17;;;;;;;4.60;4.20;;;29.40;1.00;;;;;;5057203;28;21195;-76
2021/06/03 09:46:45;;;;;;;5.37;4.60;;;30.40;1.00;;;;;;5042255;28;20446;-76
2021/06/03 09:49:20;;;;;;;3.60;3.30;;;31.20;1.00;;;;;;5044615;28;20466;-77
2021/06/03 09:51:50;;;;;;;3.43;3.13;;;32.10;1.00;;;;;;5031907;28;20493;-76
2021/06/03 09:54:19;;;;;;;5.23;4.20;;;32.40;1.00;;;;;;5041817;28;20582;-78
2021/06/03 09:56:50;;;;;;;4.60;4.20;;;32.80;1.00;;;;;;5038511;28;20436;-75
2021/06/03 09:59:20;;;;;;;5.60;4.30;;;32.70;1.00;;;;;;5041182;28;21497;-76
2021/06/03 10:01:58;;;;;;;4.73;3.10;;;32.20;1.00;;;;;;5037775;28;20478;-75
2021/06/03 10:04:30;;;;;;;4.43;4.13;;;32.40;1.00;;;;;;5037213;28;20938;-77
2021/06/03 10:07:00;;;;;;;5.70;5.03;;;32.90;1.00;;;;;;5042559;28;23976;-75
2021/06/03 10:09:38;;;;;;;4.10;3.80;;;33.00;1.00;;;;;;5047046;28;20513;-74
2021/06/03 10:12:05;;;;;;;3.80;3.53;;;33.60;1.00;;;;;;5043485;28;20507;-77
2021/06/03 10:14:32;;;;;;;8.47;4.50;;;33.00;1.00;;;;;;5047443;28;20488;-77
2021/06/03 10:17:11;;;;;;;5.47;4.97;;;33.80;1.00;;;;;;5046077;28;20588;-78
2021/06/03 10:19:38;;;;;;;4.60;4.20;;;34.40;1.00;;;;;;5041160;28;21062;-79
2021/06/03 10:22:20;;;;;;;11.70;4.80;;;34.30;1.00;;;;;;5038321;28;20534;-77
2021/06/03 10:24:49;;;;;;;4.27;3.87;;;34.70;1.00;;;;;;5042060;28;20483;-77
2021/06/03 10:27:16;;;;;;;4.20;3.80;;;35.30;1.00;;;;;;5038195;28;20534;-76
2021/06/03 10:29:43;;;;;;;5.67;3.87;;;35.40;1.00;;;;;;5040427;28;20570;-77
2021/06/03 10:32:09;;;;;;;5.83;3.80;;;35.40;1.00;;;;;;5041479;28;20439;-77
2021/06/03 10:34:36;;;;;;;4.30;3.90;;;35.70;1.00;;;;;;5038385;28;20467;-76
2021/06/03 10:37:03;;;;;;;5.37;4.13;;;36.00;1.00;;;;;;5041139;28;20444;-77
2021/06/03 10:39:31;;;;;;;3.97;3.67;;;36.60;1.00;;;;;;5040404;28;20535;-78
2021/06/03 10:41:58;;;;;;;4.60;3.20;;;37.10;1.00;;;;;;5044574;28;20467;-76
2021/06/03 10:44:25;;;;;;;4.70;3.40;;;37.20;1.00;;;;;;5049262;28;20560;-77
2021/06/03 10:46:51;;;;;;;3.97;3.70;;;36.50;1.00;;;;;;5043683;28;20482;-78
2021/06/03 10:49:18;;;;;;;3.60;3.30;;;36.70;1.00;;;;;;5038957;28;20467;-76
2021/06/03 10:51:45;;;;;;;4.63;3.70;;;36.70;1.00;;;;;;5040965;28;20524;-76
2021/06/03 10:54:11;;;;;;;4.10;3.70;;;36.30;1.00;;;;;;5044550;28;20416;-77
2021/06/03 10:56:38;;;;;;;5.37;4.13;;;35.50;1.00;;;;;;5046620;28;20990;-78
2021/06/03 10:59:28;;;;;;;5.00;3.73;;;35.50;1.00;;;;;;5049036;28;20463;-77
2021/06/03 11:01:56;;;;;;;4.70;3.53;;;35.70;1.00;;;;;;5050405;28;20569;-77
2021/06/03 11:04:27;;;;;;;5.73;4.00;;;35.60;1.00;;;;;;5042391;28;22428;-76
2021/06/03 11:06:53;;;;;;;4.37;3.97;;;36.60;1.00;;;;;;5035386;28;20480;-78
2021/06/03 11:09:27;;;;;;;3.83;3.43;;;37.20;1.00;;;;;;5040473;28;20448;-77
2021/06/03 11:12:09;;;;;;;3.33;3.03;;;37.80;1.00;;;;;;5045807;28;20455;-78
2021/06/03 11:15:05;;;;;;;4.00;3.70;;;38.20;1.00;;;;;;5050845;28;20525;-77
2021/06/03 11:17:52;;;;;;;3.80;3.30;;;37.90;1.00;;;;;;5052871;28;20439;-79
2021/06/03 11:20:33;;;;;;;3.43;3.13;;;39.00;1.00;;;;;;5040915;28;20475;-78
2021/06/03 11:23:44;;;;;;;3.67;3.43;;;38.30;1.00;;;;;;5045898;28;20460;-78
2021/06/03 11:26:50;;;;;;;4.03;3.60;;;38.30;1.00;;;;;;5045300;28;20522;-78
2021/06/03 11:29:20;;;;;;;3.80;3.40;;;38.70;1.00;;;;;;5047163;28;20451;-80
2021/06/03 11:31:49;;;;;;;3.83;3.53;;;38.90;1.00;;;;;;5041308;28;20464;-79
2021/06/03 11:34:17;;;;;;;8.90;5.10;;;39.30;1.00;;;;;;5042646;28;21620;-78
2021/06/03 11:36:55;;;;;;;3.77;3.47;;;38.90;1.00;;;;;;5044682;28;20570;-76
2021/06/03 11:39:41;;;;;;;8.33;3.90;;;39.30;1.00;;;;;;5038792;28;23571;-77
2021/06/03 11:42:28;;;;;;;3.83;3.53;;;39.80;1.00;;;;;;5046247;28;20431;-77
2021/06/03 11:45:16;;;;;;;16.97;15.67;;;40.30;1.00;;;;;;5043669;28;20484;-78
2021/06/03 11:47:59;;;;;;;5.53;4.17;;;40.70;1.00;;;;;;5040929;28;20443;-78
2021/06/03 11:50:54;;;;;;;7.13;4.67;;;41.20;1.00;;;;;;5044424;28;20454;-76
2021/06/03 11:53:23;;;;;;;7.37;4.40;;;41.40;1.00;;;;;;5020922;28;20578;-76
2021/06/03 11:55:51;;;;;;;5.47;3.50;;;41.50;1.00;;;;;;5044950;28;20451;-78
2021/06/03 11:58:22;;;;;;;4.20;3.63;;;41.50;1.00;;;;;;5039684;28;20490;-77
2021/06/03 12:00:52;;;;;;;4.43;4.13;;;41.00;1.00;;;;;;5047517;28;20733;-76
2021/06/03 12:03:30;;;;;;;3.70;3.10;;;40.00;1.00;;;;;;5041203;28;20515;-78
2021/06/03 12:05:58;;;;;;;4.27;3.53;;;39.10;1.00;;;;;;5044223;28;20428;-75
2021/06/03 12:08:37;;;;;;;3.40;3.10;;;39.00;1.00;;;;;;5046128;28;20614;-78
2021/06/03 12:11:05;;;;;;;4.90;3.40;;;40.20;1.00;;;;;;5055414;28;21376;-77
2021/06/03 12:13:32;;;;;;;4.40;4.10;;;40.40;1.00;;;;;;5051482;28;20447;-76
2021/06/03 12:15:59;;;;;;;3.80;3.50;;;41.30;1.00;;;;;;5038753;28;20538;-75
2021/06/03 12:18:32;;;;;;;3.57;3.33;;;42.40;1.00;;;;;;5042559;28;20541;-75
2021/06/03 12:20:59;;;;;;;5.73;4.20;;;42.80;1.00;;;;;;5050027;28;20547;-76
2021/06/03 12:23:25;;;;;;;3.87;3.17;;;42.40;1.00;;;;;;5045644;28;20463;-76
2021/06/03 12:25:52;;;;;;;3.70;3.40;;;41.30;1.00;;;;;;5040681;28;20443;-77
2021/06/03 12:28:18;;;;;;;4.97;4.47;;;41.40;1.00;;;;;;5038875;28;20452;-75
2021/06/03 12:30:45;;;;;;;4.20;3.80;;;40.40;1.00;;;;;;5038907;28;20506;-76
2021/06/03 12:33:15;;;;;;;4.07;3.77;;;39.60;1.00;;;;;;5034108;28;20525;-79
2021/06/03 12:35:45;;;;;;;4.00;3.60;;;40.40;1.00;;;;;;5038914;28;20454;-77
2021/06/03 12:38:25;;;;;;;3.73;3.43;;;40.60;1.00;;;;;;5033958;28;20526;-76
2021/06/03 12:40:51;;;;;;;8.53;4.50;;;41.00;1.00;;;;;;5051844;28;20910;-76
2021/06/03 12:43:18;;;;;;;3.63;3.33;;;41.00;1.00;;;;;;5036454;28;20448;-75
2021/06/03 12:45:47;;;;;;;4.23;3.83;;;41.10;1.00;;;;;;5037763;28;21435;-76
2021/06/03 12:48:16;;;;;;;4.57;3.90;;;41.20;1.00;;;;;;5049041;28;20458;-76
2021/06/03 12:50:45;;;;;;;4.73;4.33;;;41.80;1.00;;;;;;5046255;28;20527;-81
2021/06/03 12:53:14;;;;;;;3.60;3.30;;;41.20;1.00;;;;;;5041980;28;20408;-75
2021/06/03 12:55:41;;;;;;;4.37;3.93;;;40.30;1.00;;;;;;5039940;28;20489;-77
2021/06/03 12:58:09;;;;;;;5.47;4.33;;;40.80;1.00;;;;;;5039282;28;20542;-75
2021/06/03 13:00:37;;;;;;;11.73;4.27;;;40.70;1.00;;;;;;5043858;28;20502;-86
2021/06/03 13:03:17;;;;;;;4.67;4.23;;;40.80;1.00;;;;;;5052798;28;20420;-84
2021/06/03 13:05:45;;;;;;;4.10;3.70;;;41.30;1.00;;;;;;5060886;28;20451;-81
2021/06/03 13:08:11;;;;;;;4.33;4.03;;;41.20;1.00;;;;;;5050014;28;20542;-81